createdAt,value
2023-04-16T00:00:35.378Z,98.84
2023-04-16T00:02:59.359Z,99.64
2023-04-16T00:05:23.579Z,99.56
2023-04-16T00:07:47.264Z,98.68
2023-04-16T00:10:12.692Z,99.93
2023-04-16T00:12:36.571Z,100.00
2023-04-16T00:15:00.194Z,100.00
2023-04-16T00:17:23.947Z,100.00
2023-04-16T00:19:47.530Z,100.00
2023-04-16T00:22:11.098Z,99.42
2023-04-16T00:24:34.692Z,100.00
2023-04-16T00:26:59.814Z,100.00
2023-04-16T00:29:23.400Z,100.00
2023-04-16T00:31:47.010Z,99.79
2023-04-16T00:34:10.924Z,100.00
2023-04-16T00:36:35.218Z,99.42
2023-04-16T00:38:58.973Z,98.46
2023-04-16T00:41:23.122Z,98.09
2023-04-16T00:43:48.354Z,98.65
2023-04-16T00:46:12.029Z,100.00
2023-04-16T00:48:36.430Z,100.00
2023-04-16T00:51:01.707Z,100.00
2023-04-16T00:53:25.788Z,100.00
2023-04-16T00:55:49.939Z,100.00
2023-04-16T00:58:13.687Z,100.00
2023-04-16T01:00:39.494Z,100.00
2023-04-16T01:03:03.314Z,100.00
2023-04-16T01:05:28.117Z,100.00
2023-04-16T01:07:53.298Z,100.00
2023-04-16T01:10:16.943Z,100.00
2023-04-16T01:12:40.528Z,100.00
2023-04-16T01:15:04.360Z,100.00
2023-04-16T01:17:29.390Z,100.00
2023-04-16T01:19:53.008Z,99.99
2023-04-16T01:22:18.161Z,100.00
2023-04-16T01:24:41.800Z,99.38
2023-04-16T01:27:07.251Z,100.00
2023-04-16T01:29:30.980Z,99.86
2023-04-16T01:31:55.847Z,98.05
2023-04-16T01:34:25.564Z,99.36
2023-04-16T01:36:49.133Z,99.38
2023-04-16T01:39:15.570Z,98.89
2023-04-16T01:41:39.472Z,98.40
2023-04-16T01:44:03.083Z,99.67
2023-04-16T01:46:30.065Z,100.00
2023-04-16T01:48:54.757Z,99.81
2023-04-16T01:51:18.326Z,98.76
2023-04-16T01:53:42.034Z,98.78
2023-04-16T01:56:08.364Z,100.00
2023-04-16T01:58:33.496Z,100.00
2023-04-16T02:00:57.310Z,99.53
2023-04-16T02:03:21.598Z,100.00
2023-04-16T02:05:45.535Z,100.00
2023-04-16T02:08:09.169Z,100.00
2023-04-16T02:10:32.739Z,99.81
2023-04-16T02:12:57.770Z,99.51
2023-04-16T02:15:21.570Z,99.04
2023-04-16T02:17:46.555Z,98.77
2023-04-16T02:20:11.918Z,99.33
2023-04-16T02:22:43.884Z,99.91
2023-04-16T02:25:10.993Z,98.85
2023-04-16T02:27:34.886Z,100.00
2023-04-16T02:30:13.521Z,100.00
2023-04-16T02:32:37.480Z,99.62
2023-04-16T02:35:03.978Z,100.00
2023-04-16T02:37:27.622Z,100.00
2023-04-16T02:39:51.491Z,99.47
2023-04-16T02:42:16.255Z,100.00
2023-04-16T02:44:39.897Z,100.00
2023-04-16T02:47:05.015Z,100.00
2023-04-16T02:49:28.586Z,99.01
2023-04-16T02:51:52.245Z,99.19
2023-04-16T02:54:15.999Z,99.90
2023-04-16T02:56:39.718Z,99.95
2023-04-16T02:59:03.255Z,99.37
2023-04-16T03:01:28.557Z,99.78
2023-04-16T03:03:53.629Z,98.92
2023-04-16T03:06:17.272Z,99.71
2023-04-16T03:08:40.830Z,99.87
2023-04-16T03:11:04.476Z,99.71
2023-04-16T03:13:28.075Z,100.00
2023-04-16T03:15:51.830Z,100.00
2023-04-16T03:18:15.417Z,99.26
2023-04-16T03:20:40.556Z,99.48
2023-04-16T03:23:04.151Z,99.76
2023-04-16T03:25:27.730Z,99.62
2023-04-16T03:27:51.523Z,99.83
2023-04-16T03:30:16.442Z,99.72
2023-04-16T03:32:40.720Z,99.90
2023-04-16T03:35:04.755Z,100.00
2023-04-16T03:37:29.676Z,99.61
2023-04-16T03:39:53.610Z,100.00
2023-04-16T03:42:17.180Z,100.00
2023-04-16T03:44:40.941Z,100.00
2023-04-16T03:47:05.915Z,99.82
2023-04-16T03:49:29.549Z,99.92
2023-04-16T03:51:54.288Z,100.00
2023-04-16T03:54:20.764Z,100.00
2023-04-16T03:56:52.082Z,100.00
2023-04-16T03:59:15.790Z,99.33
2023-04-16T04:01:41.210Z,100.00
2023-04-16T04:04:05.244Z,100.00
2023-04-16T04:06:29.057Z,100.00
2023-04-16T04:08:52.691Z,100.00
2023-04-16T04:11:17.732Z,100.00
2023-04-16T04:13:41.511Z,100.00
2023-04-16T04:16:06.880Z,100.00
2023-04-16T04:18:30.557Z,100.00
2023-04-16T04:20:54.129Z,100.00
2023-04-16T04:23:21.246Z,100.00
2023-04-16T04:25:45.589Z,100.00
2023-04-16T04:28:10.889Z,100.00
2023-04-16T04:30:36.308Z,100.00
2023-04-16T04:33:00.066Z,100.00
2023-04-16T04:35:23.876Z,99.59
2023-04-16T04:37:47.843Z,99.39
2023-04-16T04:40:15.302Z,100.00
2023-04-16T04:42:39.554Z,100.00
2023-04-16T04:45:04.624Z,100.00
2023-04-16T04:47:30.137Z,100.00
2023-04-16T04:49:53.736Z,100.00
2023-04-16T04:52:17.412Z,100.00
2023-04-16T04:54:41.707Z,100.00
2023-04-16T04:57:05.714Z,100.00
2023-04-16T04:59:29.684Z,99.65
2023-04-16T05:01:54.842Z,99.25
2023-04-16T05:04:18.571Z,99.07
2023-04-16T05:06:42.179Z,100.00
2023-04-16T05:09:05.749Z,100.00
2023-04-16T05:11:29.379Z,100.00
2023-04-16T05:13:52.953Z,100.00
2023-04-16T05:16:16.565Z,100.00
2023-04-16T05:18:41.503Z,100.00
2023-04-16T05:21:05.741Z,100.00
2023-04-16T05:23:29.977Z,99.84
2023-04-16T05:25:53.564Z,100.00
2023-04-16T05:28:17.071Z,99.27
2023-04-16T05:30:40.722Z,100.00
2023-04-16T05:33:04.234Z,100.00
2023-04-16T05:35:29.270Z,100.00
2023-04-16T05:37:52.797Z,100.00
2023-04-16T05:40:16.757Z,100.00
2023-04-16T05:42:40.273Z,100.00
2023-04-16T05:45:05.356Z,100.00
2023-04-16T05:47:28.944Z,100.00
2023-04-16T05:49:52.606Z,100.00
2023-04-16T05:52:17.537Z,99.82
2023-04-16T05:54:41.153Z,99.68
2023-04-16T05:57:05.078Z,100.00
2023-04-16T05:59:29.323Z,100.00
2023-04-16T06:01:53.003Z,100.00
2023-04-16T06:04:16.721Z,100.00
2023-04-16T06:06:40.629Z,100.00
2023-04-16T06:09:05.838Z,100.00
2023-04-16T06:11:30.855Z,99.90
2023-04-16T06:13:54.548Z,100.00
2023-04-16T06:16:18.314Z,99.54
2023-04-16T06:18:42.346Z,98.75
2023-04-16T06:21:06.004Z,98.50
2023-04-16T06:23:29.724Z,99.40
2023-04-16T06:25:54.640Z,99.29
2023-04-16T06:28:18.252Z,99.71
2023-04-16T06:30:43.989Z,99.62
2023-04-16T06:33:08.282Z,99.20
2023-04-16T06:35:31.852Z,98.83
2023-04-16T06:37:55.624Z,98.84
2023-04-16T06:40:19.309Z,97.19
2023-04-16T06:42:45.508Z,99.05
2023-04-16T06:45:10.934Z,98.40
2023-04-16T06:47:34.617Z,99.14
2023-04-16T06:49:58.174Z,98.94
2023-04-16T06:52:21.855Z,98.74
2023-04-16T06:54:45.452Z,98.72
2023-04-16T06:57:09.168Z,98.59
2023-04-16T06:59:34.323Z,98.80
2023-04-16T07:01:58.593Z,99.24
2023-04-16T07:04:22.357Z,99.73
2023-04-16T07:06:46.170Z,99.30
2023-04-16T07:09:09.857Z,100.00
2023-04-16T07:11:33.695Z,99.60
2023-04-16T07:13:57.823Z,98.74
2023-04-16T07:16:22.814Z,98.83
2023-04-16T07:18:46.407Z,99.56
2023-04-16T07:21:09.996Z,99.75
2023-04-16T07:23:33.598Z,99.66
2023-04-16T07:25:57.197Z,98.55
2023-04-16T07:28:20.756Z,99.89
2023-04-16T07:30:44.657Z,99.92
2023-04-16T07:33:09.667Z,99.33
2023-04-16T07:35:33.946Z,99.19
2023-04-16T07:37:57.562Z,98.84
2023-04-16T07:40:21.555Z,99.14
2023-04-16T07:42:45.171Z,100.00
2023-04-16T07:45:10.398Z,99.29
2023-04-16T07:47:33.997Z,99.28
2023-04-16T07:49:59.335Z,99.68
2023-04-16T07:52:23.012Z,99.69
2023-04-16T07:54:47.149Z,99.31
2023-04-16T07:57:11.597Z,98.98
2023-04-16T07:59:35.241Z,98.99
2023-04-16T08:01:58.797Z,99.26
2023-04-16T08:04:25.340Z,98.75
2023-04-16T08:06:50.524Z,99.26
2023-04-16T08:09:14.127Z,98.99
2023-04-16T08:11:37.702Z,99.68
2023-04-16T08:14:01.375Z,99.24
2023-04-16T08:16:25.087Z,98.63
2023-04-16T08:18:48.777Z,98.69
2023-04-16T08:21:12.886Z,98.58
2023-04-16T08:23:37.948Z,97.89
2023-04-16T08:26:02.545Z,98.16
2023-04-16T08:28:26.298Z,98.76
2023-04-16T08:30:49.822Z,98.71
2023-04-16T08:33:14.186Z,98.44
2023-04-16T08:35:37.742Z,99.18
2023-04-16T08:38:02.469Z,99.67
2023-04-16T08:40:30.659Z,98.29
2023-04-16T08:42:56.884Z,98.55
2023-04-16T08:45:20.974Z,98.33
2023-04-16T08:47:48.562Z,98.27
2023-04-16T08:50:16.014Z,97.65
2023-04-16T08:52:46.466Z,96.66
2023-04-16T08:55:15.149Z,95.64
2023-04-16T08:57:46.199Z,96.78
2023-04-16T09:00:11.333Z,97.09
2023-04-16T09:02:35.889Z,97.21
2023-04-16T09:05:01.476Z,96.60
2023-04-16T09:07:27.207Z,97.00
2023-04-16T09:09:53.133Z,97.31
2023-04-16T09:12:16.804Z,97.31
2023-04-16T09:14:43.392Z,97.20
2023-04-16T09:17:08.363Z,95.76
2023-04-16T09:19:31.987Z,95.09
2023-04-16T09:21:55.681Z,95.75
2023-04-16T09:24:19.881Z,95.98
2023-04-16T09:26:44.560Z,94.96
2023-04-16T09:29:09.879Z,95.65
2023-04-16T09:31:35.105Z,94.90
2023-04-16T09:34:07.790Z,95.57
2023-04-16T09:36:32.534Z,95.08
2023-04-16T09:38:58.036Z,95.39
2023-04-16T09:41:27.248Z,96.38
2023-04-16T09:43:58.129Z,95.85
2023-04-16T09:46:21.848Z,95.38
2023-04-16T09:48:48.090Z,94.45
2023-04-16T09:51:11.688Z,96.30
2023-04-16T09:53:35.303Z,95.34
2023-04-16T09:55:59.242Z,94.86
2023-04-16T09:58:22.987Z,95.15
2023-04-16T10:00:46.746Z,94.98
2023-04-16T10:03:10.816Z,95.24
2023-04-16T10:05:36.637Z,93.33
2023-04-16T10:08:02.407Z,93.42
2023-04-16T10:10:26.359Z,94.80
2023-04-16T10:12:49.913Z,94.34
2023-04-16T10:15:13.536Z,94.55
2023-04-16T10:17:37.580Z,94.23
2023-04-16T10:20:03.199Z,95.07
2023-04-16T10:22:28.189Z,93.01
2023-04-16T10:24:52.633Z,93.37
2023-04-16T10:27:16.628Z,91.79
2023-04-16T10:29:40.885Z,89.50
2023-04-16T10:32:05.746Z,89.72
2023-04-16T10:34:31.271Z,89.55
2023-04-16T10:36:56.110Z,91.09
2023-04-16T10:39:23.317Z,91.06
2023-04-16T10:41:47.155Z,92.18
2023-04-16T10:44:12.411Z,90.89
2023-04-16T10:46:39.682Z,89.48
2023-04-16T10:49:15.374Z,90.20
2023-04-16T10:51:39.037Z,89.32
2023-04-16T10:54:20.621Z,91.71
2023-04-16T10:56:47.709Z,88.67
2023-04-16T10:59:12.647Z,89.76
2023-04-16T11:01:38.793Z,87.68
2023-04-16T11:04:03.742Z,86.71
2023-04-16T11:06:29.623Z,88.50
2023-04-16T11:08:55.410Z,86.44
2023-04-16T11:11:20.222Z,86.81
2023-04-16T11:13:47.257Z,87.99
2023-04-16T11:16:11.582Z,88.31
2023-04-16T11:18:35.776Z,88.06
2023-04-16T11:21:10.791Z,88.67
2023-04-16T11:23:48.830Z,86.75
2023-04-16T11:26:26.123Z,85.48
2023-04-16T11:28:51.645Z,87.54
2023-04-16T11:31:15.201Z,87.94
2023-04-16T11:33:39.917Z,87.23
2023-04-16T11:36:03.438Z,87.35
2023-04-16T11:38:36.543Z,86.21
2023-04-16T11:41:00.183Z,86.70
2023-04-16T11:43:23.710Z,86.44
2023-04-16T11:45:59.468Z,87.53
2023-04-16T11:48:23.124Z,86.80
2023-04-16T11:50:57.460Z,86.65
2023-04-16T11:53:21.306Z,87.69
2023-04-16T11:55:46.009Z,87.40
2023-04-16T11:58:15.907Z,87.22
2023-04-16T12:00:40.123Z,86.99
2023-04-16T12:03:05.401Z,87.11
2023-04-16T12:05:31.987Z,88.67
2023-04-16T12:07:55.600Z,87.98
2023-04-16T12:10:19.261Z,86.37
2023-04-16T12:12:44.080Z,87.00
2023-04-16T12:15:08.968Z,86.91
2023-04-16T12:17:33.546Z,87.60
2023-04-16T12:20:00.444Z,88.71
2023-04-16T12:22:33.622Z,88.28
2023-04-16T12:25:00.970Z,88.85
2023-04-16T12:27:28.536Z,87.99
2023-04-16T12:30:07.254Z,87.72
2023-04-16T12:32:30.856Z,88.20
2023-04-16T12:34:54.368Z,88.35
2023-04-16T12:37:19.413Z,88.64
2023-04-16T12:39:42.911Z,88.12
2023-04-16T12:42:09.872Z,87.83
2023-04-16T12:44:33.541Z,88.23
2023-04-16T12:46:57.113Z,88.49
2023-04-16T12:49:20.727Z,86.53
2023-04-16T12:51:44.626Z,86.16
2023-04-16T12:54:09.786Z,86.48
2023-04-16T12:56:34.337Z,85.53
2023-04-16T12:58:57.964Z,86.39
2023-04-16T13:01:21.964Z,86.40
2023-04-16T13:03:45.668Z,85.87
2023-04-16T13:06:10.096Z,85.90
2023-04-16T13:08:33.645Z,84.11
2023-04-16T13:10:58.607Z,85.35
2023-04-16T13:13:22.198Z,85.90
2023-04-16T13:15:45.962Z,85.11
2023-04-16T13:18:09.519Z,85.12
2023-04-16T13:20:34.462Z,87.24
2023-04-16T13:22:58.448Z,85.57
2023-04-16T13:25:22.058Z,86.34
2023-04-16T13:27:47.015Z,83.78
2023-04-16T13:30:11.746Z,83.58
2023-04-16T13:32:35.488Z,83.39
2023-04-16T13:34:59.069Z,81.54
2023-04-16T13:37:22.597Z,81.89
2023-04-16T13:39:46.536Z,83.68
2023-04-16T13:42:10.087Z,81.79
2023-04-16T13:44:35.120Z,82.93
2023-04-16T13:46:58.862Z,84.10
2023-04-16T13:49:22.724Z,82.48
2023-04-16T13:51:46.281Z,82.42
2023-04-16T13:54:09.837Z,82.60
2023-04-16T13:56:33.478Z,82.92
2023-04-16T13:58:57.115Z,81.85
2023-04-16T14:01:22.259Z,82.50
2023-04-16T14:03:46.146Z,82.26
2023-04-16T14:06:09.757Z,82.84
2023-04-16T14:08:33.743Z,82.81
2023-04-16T14:10:57.889Z,80.80
2023-04-16T14:13:22.016Z,81.74
2023-04-16T14:15:45.619Z,81.88
2023-04-16T14:18:10.727Z,80.55
2023-04-16T14:20:34.224Z,81.16
2023-04-16T14:22:57.788Z,81.87
2023-04-16T14:25:21.390Z,81.88
2023-04-16T14:27:44.982Z,80.45
2023-04-16T14:30:10.098Z,80.79
2023-04-16T14:32:33.834Z,80.43
2023-04-16T14:34:58.862Z,79.20
2023-04-16T14:37:22.468Z,80.23
2023-04-16T14:39:46.164Z,80.55
2023-04-16T14:42:09.767Z,80.79
2023-04-16T14:44:33.449Z,80.35
2023-04-16T14:46:57.048Z,80.27
2023-04-16T14:49:20.791Z,80.76
2023-04-16T14:51:47.397Z,81.62
2023-04-16T14:54:11.464Z,80.66
2023-04-16T14:56:35.764Z,81.43
2023-04-16T14:58:59.327Z,79.72
2023-04-16T15:01:23.060Z,79.77
2023-04-16T15:03:46.721Z,80.64
2023-04-16T15:06:11.477Z,79.40
2023-04-16T15:08:36.625Z,79.23
2023-04-16T15:11:00.285Z,78.98
2023-04-16T15:13:23.951Z,78.79
2023-04-16T15:15:47.609Z,79.06
2023-04-16T15:18:11.445Z,79.46
2023-04-16T15:20:35.772Z,78.90
2023-04-16T15:22:59.337Z,80.45
2023-04-16T15:25:25.534Z,78.53
2023-04-16T15:27:49.149Z,79.71
2023-04-16T15:30:13.798Z,78.44
2023-04-16T15:32:37.414Z,78.98
2023-04-16T15:35:01.040Z,79.05
2023-04-16T15:37:25.045Z,79.45
2023-04-16T15:39:48.590Z,78.92
2023-04-16T15:42:13.740Z,80.01
2023-04-16T15:44:37.365Z,79.51
2023-04-16T15:47:01.456Z,78.66
2023-04-16T15:49:25.539Z,79.33
2023-04-16T15:51:49.170Z,79.23
2023-04-16T15:54:12.778Z,79.45
2023-04-16T15:56:36.302Z,79.58
2023-04-16T15:59:01.292Z,80.34
2023-04-16T16:01:24.872Z,81.67
2023-04-16T16:03:48.733Z,81.80
2023-04-16T16:06:13.407Z,83.03
2023-04-16T16:08:38.391Z,82.39
2023-04-16T16:11:02.064Z,82.63
2023-04-16T16:13:25.907Z,82.80
2023-04-16T16:15:50.986Z,81.62
2023-04-16T16:18:14.791Z,82.02
2023-04-16T16:20:38.921Z,82.06
2023-04-16T16:23:02.695Z,82.13
2023-04-16T16:25:26.279Z,82.11
2023-04-16T16:27:50.025Z,83.18
2023-04-16T16:30:14.891Z,82.32
2023-04-16T16:32:41.071Z,82.11
2023-04-16T16:35:05.075Z,82.91
2023-04-16T16:37:29.813Z,82.85
2023-04-16T16:39:53.355Z,82.97
2023-04-16T16:42:18.929Z,83.85
2023-04-16T16:44:42.511Z,84.13
2023-04-16T16:47:06.557Z,85.15
2023-04-16T16:49:31.635Z,83.82
2023-04-16T16:51:55.192Z,84.41
2023-04-16T16:54:18.743Z,84.28
2023-04-16T16:56:42.572Z,83.43
2023-04-16T16:59:06.181Z,85.19
2023-04-16T17:01:31.262Z,85.37
2023-04-16T17:03:55.283Z,86.49
2023-04-16T17:06:22.265Z,85.94
2023-04-16T17:08:45.923Z,86.74
2023-04-16T17:11:09.689Z,87.24
2023-04-16T17:13:34.729Z,85.85
2023-04-16T17:15:58.418Z,87.31
2023-04-16T17:18:21.980Z,87.30
2023-04-16T17:20:45.595Z,88.48
2023-04-16T17:23:10.510Z,87.99
2023-04-16T17:25:34.769Z,87.10
2023-04-16T17:27:58.359Z,87.35
2023-04-16T17:30:23.724Z,87.05
2023-04-16T17:32:47.387Z,86.61
2023-04-16T17:35:12.913Z,86.76
2023-04-16T17:37:36.441Z,86.44
2023-04-16T17:40:01.457Z,87.49
2023-04-16T17:42:25.484Z,86.09
2023-04-16T17:44:49.317Z,86.58
2023-04-16T17:47:12.876Z,86.76
2023-04-16T17:49:36.509Z,85.75
2023-04-16T17:52:00.098Z,84.87
2023-04-16T17:54:23.719Z,85.44
2023-04-16T17:56:48.693Z,85.22
2023-04-16T17:59:12.322Z,84.75
2023-04-16T18:01:36.046Z,84.86
2023-04-16T18:03:59.916Z,86.19
2023-04-16T18:06:23.566Z,85.42
2023-04-16T18:08:47.303Z,85.12
2023-04-16T18:11:10.867Z,85.34
2023-04-16T18:13:35.854Z,85.60
2023-04-16T18:15:59.517Z,86.10
2023-04-16T18:18:23.105Z,86.32
2023-04-16T18:20:46.608Z,85.82
2023-04-16T18:23:10.367Z,85.68
2023-04-16T18:25:35.248Z,87.49
2023-04-16T18:27:59.440Z,85.77
2023-04-16T18:30:26.620Z,85.67
2023-04-16T18:33:16.612Z,86.34
2023-04-16T18:35:34.389Z,87.24
2023-04-16T18:37:57.889Z,87.69
2023-04-16T18:40:21.682Z,86.72
2023-04-16T18:42:45.564Z,85.65
2023-04-16T18:45:19.566Z,86.10
2023-04-16T18:47:47.529Z,86.14
2023-04-16T18:50:11.434Z,85.90
2023-04-16T18:52:35.123Z,86.74
2023-04-16T18:54:58.652Z,86.09
2023-04-16T18:57:22.308Z,86.76
2023-04-16T18:59:45.852Z,86.03
2023-04-16T19:02:10.085Z,86.61
2023-04-16T19:04:35.091Z,87.01
2023-04-16T19:06:58.710Z,85.94
2023-04-16T19:09:22.303Z,87.71
2023-04-16T19:11:45.998Z,87.13
2023-04-16T19:14:09.882Z,87.87
2023-04-16T19:16:33.714Z,87.21
2023-04-16T19:18:57.794Z,87.91
2023-04-16T19:21:22.827Z,87.54
2023-04-16T19:23:46.462Z,88.69
2023-04-16T19:26:10.112Z,88.44
2023-04-16T19:28:33.660Z,88.68
2023-04-16T19:30:57.635Z,88.27
2023-04-16T19:33:21.435Z,88.67
2023-04-16T19:35:45.065Z,87.79
2023-04-16T19:38:10.960Z,88.81
2023-04-16T19:40:34.805Z,87.99
2023-04-16T19:42:58.378Z,88.49
2023-04-16T19:45:25.755Z,88.24
2023-04-16T19:47:51.262Z,88.75
2023-04-16T19:50:14.932Z,89.42
2023-04-16T19:52:39.095Z,90.37
2023-04-16T19:55:04.461Z,90.06
2023-04-16T19:57:28.009Z,88.04
2023-04-16T19:59:52.523Z,88.19
2023-04-16T20:02:17.645Z,88.56
2023-04-16T20:04:41.266Z,89.28
2023-04-16T20:07:04.793Z,89.28
2023-04-16T20:09:28.491Z,89.91
2023-04-16T20:11:53.440Z,88.67
2023-04-16T20:14:17.283Z,89.42
2023-04-16T20:16:40.991Z,89.32
2023-04-16T20:19:05.853Z,90.22
2023-04-16T20:21:31.725Z,89.52
2023-04-16T20:23:55.931Z,89.63
2023-04-16T20:26:19.709Z,90.87
2023-04-16T20:28:44.878Z,90.13
2023-04-16T20:31:08.522Z,90.03
2023-04-16T20:33:32.347Z,92.45
2023-04-16T20:35:56.347Z,90.65
2023-04-16T20:38:23.809Z,91.15
2023-04-16T20:40:47.503Z,91.16
2023-04-16T20:43:14.248Z,90.78
2023-04-16T20:45:41.021Z,89.58
2023-04-16T20:48:05.110Z,89.85
2023-04-16T20:50:28.904Z,90.22
2023-04-16T20:52:52.866Z,90.90
2023-04-16T20:55:16.747Z,91.20
2023-04-16T20:57:40.634Z,90.70
2023-04-16T21:00:09.225Z,90.32
2023-04-16T21:02:34.464Z,89.97
2023-04-16T21:04:58.144Z,91.45
2023-04-16T21:07:21.823Z,91.31
2023-04-16T21:09:45.560Z,91.87
2023-04-16T21:12:09.520Z,91.62
2023-04-16T21:14:33.119Z,92.26
2023-04-16T21:16:56.875Z,92.40
2023-04-16T21:19:22.489Z,91.99
2023-04-16T21:21:46.202Z,93.18
2023-04-16T21:24:10.023Z,93.47
2023-04-16T21:26:33.761Z,93.58
2023-04-16T21:28:58.111Z,92.24
2023-04-16T21:31:22.103Z,91.99
2023-04-16T21:33:46.096Z,91.64
2023-04-16T21:36:14.385Z,93.33
2023-04-16T21:38:38.528Z,92.65
2023-04-16T21:41:03.343Z,93.26
2023-04-16T21:43:29.009Z,92.27
2023-04-16T21:45:54.138Z,93.05
2023-04-16T21:48:18.523Z,93.03
2023-04-16T21:50:42.372Z,92.79
2023-04-16T21:53:08.626Z,93.32
2023-04-16T21:55:32.874Z,92.93
2023-04-16T21:57:56.727Z,92.35
2023-04-16T22:00:21.315Z,92.25
2023-04-16T22:02:45.158Z,92.59
2023-04-16T22:05:10.803Z,91.02
2023-04-16T22:07:34.365Z,94.05
2023-04-16T22:09:59.961Z,93.25
2023-04-16T22:12:23.501Z,93.18
2023-04-16T22:14:59.651Z,92.79
2023-04-16T22:17:28.033Z,92.26
2023-04-16T22:19:53.475Z,91.23
2023-04-16T22:22:17.420Z,91.66
2023-04-16T22:24:41.396Z,92.10
2023-04-16T22:27:06.766Z,91.68
2023-04-16T22:29:30.669Z,90.90
2023-04-16T22:31:55.154Z,92.54
2023-04-16T22:34:19.633Z,92.65
2023-04-16T22:36:43.332Z,92.23
2023-04-16T22:39:08.717Z,92.63
2023-04-16T22:41:32.664Z,93.11
2023-04-16T22:43:58.372Z,93.00
2023-04-16T22:46:22.409Z,93.32
2023-04-16T22:48:46.276Z,93.55
2023-04-16T22:51:10.890Z,92.74
2023-04-16T22:53:34.578Z,91.59
2023-04-16T22:55:58.449Z,91.50
2023-04-16T22:58:22.307Z,91.58
2023-04-16T23:00:47.888Z,92.22
2023-04-16T23:03:11.746Z,92.25
2023-04-16T23:05:35.677Z,91.58
2023-04-16T23:07:59.192Z,91.57
2023-04-16T23:10:22.798Z,91.14
2023-04-16T23:12:46.465Z,90.91
2023-04-16T23:15:11.124Z,91.19
2023-04-16T23:17:36.117Z,91.57
2023-04-16T23:19:59.866Z,90.77
2023-04-16T23:22:23.404Z,91.40
2023-04-16T23:24:46.992Z,89.87
2023-04-16T23:27:10.722Z,91.63
2023-04-16T23:29:34.335Z,90.90
2023-04-16T23:31:58.423Z,91.91
2023-04-16T23:34:23.447Z,90.42
2023-04-16T23:36:47.154Z,91.53
2023-04-16T23:39:11.088Z,91.34
2023-04-16T23:41:34.741Z,90.83
2023-04-16T23:43:59.061Z,90.56
2023-04-16T23:46:22.752Z,90.85
2023-04-16T23:48:46.405Z,90.25
2023-04-16T23:51:11.383Z,89.68
2023-04-16T23:53:36.356Z,89.16
2023-04-16T23:55:59.889Z,90.15
2023-04-16T23:58:23.477Z,89.91
